Time;durP1;ratioP1;P1;durP2;ratioP2;P2;SDS_P1;SDS_P2;PMS_P1;PMS_P2;Temp;Humidity;BMP_temperature;BMP_pressure;BME280_temperature;BME280_humidity;BME280_pressure;Samples;Min_cycle;Max_cycle;Signal;HPM_P1;HPM_P2
2022/06/11 00:02:02;;;;;;;;;0.00;0.00;28.90;99.90;;;;;;4931072;28;8908;-57
2022/06/11 00:04:41;;;;;;;;;0.00;0.00;28.90;99.90;;;;;;4932743;28;8912;-52
2022/06/11 00:07:17;;;;;;;;;0.00;0.00;28.80;99.90;;;;;;4929081;28;8904;-47
2022/06/11 00:09:49;;;;;;;;;0.00;0.00;29.00;99.90;;;;;;4930517;28;8924;-50
2022/06/11 00:12:21;;;;;;;;;0.00;0.00;28.80;99.90;;;;;;4933450;28;8897;-53
2022/06/11 00:14:52;;;;;;;;;0.00;0.00;28.80;99.90;;;;;;4934200;28;9988;-50
2022/06/11 00:17:25;;;;;;;;;0.00;0.00;28.80;99.90;;;;;;4933194;28;8889;-50
2022/06/11 00:19:56;;;;;;;;;1.20;0.00;28.90;99.90;;;;;;4934313;28;8960;-50
2022/06/11 00:22:26;;;;;;;;;0.60;0.00;28.80;99.90;;;;;;4928645;28;8900;-51
2022/06/11 00:24:56;;;;;;;;;0.00;0.00;28.80;99.90;;;;;;4933414;28;9608;-51
2022/06/11 00:27:27;;;;;;;;;1.40;0.80;28.70;99.90;;;;;;4934039;28;8915;-51
2022/06/11 00:29:58;;;;;;;;;0.60;0.60;28.80;99.90;;;;;;4931839;28;8872;-52
2022/06/11 00:32:29;;;;;;;;;0.40;0.00;28.90;99.90;;;;;;4926477;28;8865;-59
2022/06/11 00:35:03;;;;;;;;;0.00;0.00;28.90;99.90;;;;;;4901559;28;8860;-59
2022/06/11 00:37:33;;;;;;;;;0.00;0.00;29.00;99.90;;;;;;4929884;28;8874;-52
2022/06/11 00:40:07;;;;;;;;;0.00;0.00;29.00;99.90;;;;;;4932422;28;8881;-54
2022/06/11 00:42:38;;;;;;;;;0.00;0.00;28.90;99.90;;;;;;4926511;28;8868;-59
2022/06/11 00:45:18;;;;;;;;;0.00;0.00;29.00;99.90;;;;;;4924087;28;8881;-60
2022/06/11 00:47:57;;;;;;;;;0.00;0.00;28.90;99.90;;;;;;4930820;28;8864;-51
2022/06/11 00:50:40;;;;;;;;;0.00;0.00;28.80;99.90;;;;;;4931801;28;8884;-52
2022/06/11 00:53:22;;;;;;;;;0.00;0.00;28.90;99.90;;;;;;4934835;28;8865;-58
2022/06/11 00:55:52;;;;;;;;;0.00;0.00;28.70;99.90;;;;;;4926949;28;8887;-58
2022/06/11 00:58:28;;;;;;;;;0.00;0.00;28.60;99.90;;;;;;4938129;28;8881;-58
2022/06/11 01:01:00;;;;;;;;;0.00;0.00;28.60;99.90;;;;;;4929105;28;8924;-59
2022/06/11 01:03:36;;;;;;;;;0.60;0.00;28.60;99.90;;;;;;4926029;28;8881;-52
2022/06/11 01:06:15;;;;;;;;;0.00;0.00;28.50;99.90;;;;;;4929480;28;8883;-49
2022/06/11 01:09:01;;;;;;;;;0.00;0.00;28.50;99.90;;;;;;4936275;28;8886;-58
2022/06/11 01:11:42;;;;;;;;;0.00;0.00;28.30;99.90;;;;;;4930750;28;8870;-60
2022/06/11 01:14:40;;;;;;;;;0.00;0.00;28.20;99.90;;;;;;4929307;28;9665;-59
2022/06/11 01:17:41;;;;;;;;;1.00;0.00;28.20;99.90;;;;;;4930378;28;8890;-59
2022/06/11 01:20:21;;;;;;;;;1.20;0.00;28.10;99.90;;;;;;4932415;28;8881;-59
2022/06/11 01:23:13;;;;;;;;;0.00;0.00;28.00;99.90;;;;;;4937686;28;8889;-59
2022/06/11 01:25:54;;;;;;;;;0.80;0.00;28.00;99.90;;;;;;4933765;28;11396;-59
2022/06/11 01:28:50;;;;;;;;;0.00;0.00;27.90;99.90;;;;;;4928246;28;8850;-51
2022/06/11 01:31:27;;;;;;;;;0.00;0.00;27.80;99.90;;;;;;4928898;28;8875;-49
2022/06/11 01:34:32;;;;;;;;;0.00;0.00;27.70;99.90;;;;;;4931797;28;8888;-48
2022/06/11 01:37:21;;;;;;;;;0.80;0.00;27.80;99.90;;;;;;4920947;28;8896;-53
2022/06/11 01:40:18;;;;;;;;;0.00;0.00;27.70;99.90;;;;;;4926893;28;8874;-50
2022/06/11 01:42:55;;;;;;;;;0.40;0.00;27.60;99.90;;;;;;4929108;28;9053;-60
2022/06/11 01:45:32;;;;;;;;;0.00;0.00;27.70;99.90;;;;;;4924619;28;8951;-58
2022/06/11 01:48:08;;;;;;;;;0.00;0.00;27.70;99.90;;;;;;4931340;28;8893;-59
2022/06/11 01:50:42;;;;;;;;;0.00;0.00;27.60;99.90;;;;;;4929474;28;8912;-58
2022/06/11 01:53:37;;;;;;;;;0.00;0.00;27.50;99.90;;;;;;4930925;28;8857;-51
2022/06/11 01:56:37;;;;;;;;;0.00;0.00;27.50;99.90;;;;;;4926987;28;8904;-52
2022/06/11 01:59:18;;;;;;;;;0.00;0.00;27.40;99.90;;;;;;4942702;28;8848;-58
2022/06/11 02:02:17;;;;;;;;;0.00;0.00;27.40;99.90;;;;;;4935318;28;8860;-58
2022/06/11 02:04:52;;;;;;;;;0.20;0.00;27.30;99.90;;;;;;4931865;28;8892;-51
2022/06/11 02:07:48;;;;;;;;;0.00;0.00;27.20;99.90;;;;;;4930351;28;9003;-60
2022/06/11 02:10:59;;;;;;;;;0.00;0.00;27.30;99.90;;;;;;4939190;28;8977;-59
2022/06/11 02:14:04;;;;;;;;;0.00;0.00;27.50;99.90;;;;;;4935052;28;8857;-59
2022/06/11 02:16:52;;;;;;;;;0.80;0.00;27.40;99.90;;;;;;4909174;28;8859;-68
2022/06/11 02:19:29;;;;;;;;;0.00;0.00;27.20;99.90;;;;;;4942275;28;9010;-60
2022/06/11 02:22:06;;;;;;;;;0.80;0.00;27.10;99.90;;;;;;4933466;28;8861;-52
2022/06/11 02:24:41;;;;;;;;;0.00;0.00;26.80;99.90;;;;;;4928752;28;8873;-51
2022/06/11 02:27:16;;;;;;;;;0.20;0.00;26.80;99.90;;;;;;4939074;28;8848;-50
2022/06/11 02:29:46;;;;;;;;;0.40;0.00;26.90;99.90;;;;;;4929828;28;9815;-52
2022/06/11 02:32:20;;;;;;;;;0.00;0.00;26.80;99.90;;;;;;4926049;28;8848;-47
2022/06/11 02:34:54;;;;;;;;;0.00;0.00;26.80;99.90;;;;;;4933517;28;8904;-49
2022/06/11 02:37:39;;;;;;;;;0.00;0.00;26.70;99.90;;;;;;4927794;28;8897;-46
2022/06/11 02:40:15;;;;;;;;;0.50;0.50;26.70;99.90;;;;;;4933169;28;8869;-50
2022/06/11 02:42:47;;;;;;;;;0.00;0.00;26.70;99.90;;;;;;4929601;28;8878;-52
2022/06/11 02:45:18;;;;;;;;;1.00;1.00;26.80;99.90;;;;;;4928231;28;9596;-54
2022/06/11 02:47:51;;;;;;;;;2.00;0.25;26.50;99.90;;;;;;4935365;28;8862;-48
2022/06/11 02:50:27;;;;;;;;;0.00;0.00;26.40;99.90;;;;;;4926235;28;8893;-51
2022/06/11 02:53:00;;;;;;;;;0.00;0.00;26.20;99.90;;;;;;4937436;28;8892;-50
2022/06/11 02:55:30;;;;;;;;;1.00;1.00;26.10;99.90;;;;;;4928066;28;8912;-49
2022/06/11 02:58:01;;;;;;;;;0.75;0.75;26.10;99.90;;;;;;4930766;28;8852;-50
2022/06/11 03:00:35;;;;;;;;;0.00;0.00;26.00;99.90;;;;;;4932854;28;9451;-46
2022/06/11 03:03:06;;;;;;;;;0.00;0.00;26.00;99.90;;;;;;4931441;28;9022;-51
2022/06/11 03:05:37;;;;;;;;;0.00;0.00;25.90;99.90;;;;;;4937330;28;8846;-51
2022/06/11 03:08:08;;;;;;;;;0.00;0.00;25.70;99.90;;;;;;4951034;28;8873;-48
2022/06/11 03:10:39;;;;;;;;;0.00;0.00;25.50;99.90;;;;;;4938381;28;8881;-45
2022/06/11 03:13:11;;;;;;;;;0.00;0.00;25.60;99.90;;;;;;4930205;28;8973;-49
2022/06/11 03:15:41;;;;;;;;;0.00;0.00;25.60;99.90;;;;;;4930671;28;8877;-51
2022/06/11 03:18:11;;;;;;;;;0.00;0.00;25.70;99.90;;;;;;4931987;28;8882;-46
2022/06/11 03:20:42;;;;;;;;;0.00;0.00;25.60;99.90;;;;;;4933490;28;8885;-48
2022/06/11 03:23:13;;;;;;;;;0.00;0.00;25.60;99.90;;;;;;4928226;28;8877;-46
2022/06/11 03:25:44;;;;;;;;;0.00;0.00;25.60;99.90;;;;;;4933320;28;9020;-48
2022/06/11 03:28:23;;;;;;;;;0.00;0.00;25.60;99.90;;;;;;4930003;28;8873;-49
2022/06/11 03:30:54;;;;;;;;;0.25;0.25;25.50;99.90;;;;;;4934225;28;9337;-49
2022/06/11 03:33:26;;;;;;;;;0.25;0.25;25.40;99.90;;;;;;4927345;28;8905;-53
2022/06/11 03:35:56;;;;;;;;;0.00;0.00;25.10;99.90;;;;;;4930048;28;8992;-53
2022/06/11 03:38:27;;;;;;;;;0.00;0.00;25.20;99.90;;;;;;4928717;28;8881;-51
2022/06/11 03:40:57;;;;;;;;;0.00;0.00;25.20;99.90;;;;;;4928447;28;8963;-52
2022/06/11 03:43:27;;;;;;;;;0.00;0.00;25.30;99.90;;;;;;4933376;28;8885;-47
2022/06/11 03:45:59;;;;;;;;;0.00;0.00;25.20;99.90;;;;;;4929164;28;8881;-53
2022/06/11 03:48:30;;;;;;;;;0.00;0.00;25.30;99.90;;;;;;4925483;28;9033;-50
2022/06/11 03:51:02;;;;;;;;;0.75;0.75;25.40;99.90;;;;;;4932258;28;8861;-51
2022/06/11 03:53:32;;;;;;;;;1.00;1.00;25.40;99.90;;;;;;4928494;28;8872;-49
2022/06/11 03:56:04;;;;;;;;;0.00;0.00;25.20;99.90;;;;;;4921206;28;8874;-47
2022/06/11 03:58:35;;;;;;;;;1.00;1.00;25.00;99.90;;;;;;4928233;28;8864;-49
2022/06/11 04:01:16;;;;;;;;;0.50;0.50;25.00;99.90;;;;;;4925505;28;9008;-47
2022/06/11 04:03:49;;;;;;;;;0.75;0.75;24.80;99.90;;;;;;4929673;28;8898;-52
2022/06/11 04:06:31;;;;;;;;;0.75;0.75;24.70;99.90;;;;;;4931444;28;8896;-52
2022/06/11 04:09:06;;;;;;;;;0.00;0.00;24.70;99.90;;;;;;4932234;28;8877;-48
2022/06/11 04:11:37;;;;;;;;;0.00;0.00;24.70;99.90;;;;;;4930531;28;8841;-51
2022/06/11 04:14:09;;;;;;;;;0.25;0.25;24.70;99.90;;;;;;4932040;28;8854;-49
2022/06/11 04:17:05;;;;;;;;;0.00;0.00;24.50;99.90;;;;;;4937525;28;8853;-51
2022/06/11 04:19:40;;;;;;;;;0.00;0.00;24.30;99.90;;;;;;4931391;28;9077;-49
2022/06/11 04:22:11;;;;;;;;;0.00;0.00;24.30;99.90;;;;;;4927231;28;8880;-51
2022/06/11 04:24:42;;;;;;;;;1.00;1.00;24.40;99.90;;;;;;4931460;28;8892;-47
2022/06/11 04:27:16;;;;;;;;;0.00;0.00;24.60;99.90;;;;;;4927595;28;8873;-47
2022/06/11 04:29:51;;;;;;;;;0.00;0.00;24.50;99.90;;;;;;4927273;28;8876;-54
2022/06/11 04:32:23;;;;;;;;;1.50;0.00;24.50;99.90;;;;;;4926984;28;8903;-49
2022/06/11 04:34:55;;;;;;;;;0.00;0.00;24.50;99.90;;;;;;4929084;28;8886;-48
2022/06/11 04:37:28;;;;;;;;;0.00;0.00;24.50;99.90;;;;;;4934304;28;8896;-49
2022/06/11 04:40:00;;;;;;;;;0.00;0.00;24.50;99.90;;;;;;4933511;28;8935;-48
2022/06/11 04:42:31;;;;;;;;;0.50;0.00;24.50;99.90;;;;;;4936954;28;8883;-49
2022/06/11 04:45:03;;;;;;;;;0.00;0.00;24.40;99.90;;;;;;4932841;28;8897;-49
2022/06/11 04:47:34;;;;;;;;;0.00;0.00;24.40;99.90;;;;;;4929171;28;9034;-45
2022/06/11 04:50:06;;;;;;;;;0.00;0.00;24.30;99.90;;;;;;4933138;28;8907;-47
2022/06/11 04:52:36;;;;;;;;;0.00;0.00;24.30;99.90;;;;;;4928325;28;8891;-47
2022/06/11 04:55:06;;;;;;;;;1.00;1.00;24.30;99.90;;;;;;4931199;28;8865;-46
2022/06/11 04:57:37;;;;;;;;;0.50;0.50;24.30;99.90;;;;;;4928579;28;8846;-47
2022/06/11 05:00:15;;;;;;;;;0.00;0.00;24.30;99.90;;;;;;4927416;28;8971;-46
2022/06/11 05:02:46;;;;;;;;;1.75;0.25;24.30;99.90;;;;;;4924357;28;9012;-45
2022/06/11 05:05:16;;;;;;;;;1.00;1.00;24.20;99.90;;;;;;4928991;28;9027;-48
2022/06/11 05:07:47;;;;;;;;;0.00;0.00;24.20;99.90;;;;;;4928404;28;8891;-49
2022/06/11 05:10:21;;;;;;;;;0.00;0.00;24.20;99.90;;;;;;4932227;28;8885;-49
2022/06/11 05:12:52;;;;;;;;;0.00;0.00;24.10;99.90;;;;;;4925813;28;8888;-51
2022/06/11 05:15:23;;;;;;;;;0.00;0.00;24.00;99.90;;;;;;4930930;28;8944;-45
2022/06/11 05:17:54;;;;;;;;;0.75;0.75;24.00;99.90;;;;;;4931898;28;8955;-49
2022/06/11 05:20:25;;;;;;;;;0.00;0.00;24.10;99.90;;;;;;4932965;28;9006;-47
2022/06/11 05:22:55;;;;;;;;;0.00;0.00;24.00;99.90;;;;;;4932776;28;8925;-47
2022/06/11 05:25:25;;;;;;;;;0.00;0.00;24.00;99.90;;;;;;4930582;28;8892;-48
2022/06/11 05:27:56;;;;;;;;;2.00;0.00;24.00;99.90;;;;;;4927450;28;9541;-49
2022/06/11 05:30:30;;;;;;;;;0.00;0.00;23.90;99.90;;;;;;4930076;28;8876;-49
2022/06/11 05:33:03;;;;;;;;;0.00;0.00;23.80;99.90;;;;;;4924927;28;8900;-48
2022/06/11 05:35:35;;;;;;;;;1.00;1.00;23.80;99.90;;;;;;4930093;28;8928;-46
2022/06/11 05:38:09;;;;;;;;;0.00;0.00;23.80;99.90;;;;;;4928770;28;8865;-46
2022/06/11 05:40:41;;;;;;;;;2.00;0.00;23.90;99.90;;;;;;4948142;28;8833;-51
2022/06/11 05:43:14;;;;;;;;;0.25;0.25;23.80;99.90;;;;;;4930408;28;8907;-49
2022/06/11 05:45:46;;;;;;;;;0.00;0.00;23.70;99.90;;;;;;4935884;28;8860;-46
2022/06/11 05:48:20;;;;;;;;;0.00;0.00;23.70;99.90;;;;;;4931625;28;8852;-51
2022/06/11 05:50:54;;;;;;;;;0.75;0.75;23.70;99.90;;;;;;4934447;28;8838;-49
2022/06/11 05:53:27;;;;;;;;;0.00;0.00;23.70;99.90;;;;;;4935081;28;8840;-50
2022/06/11 05:55:59;;;;;;;;;0.00;0.00;23.70;99.90;;;;;;4930120;28;8865;-46
2022/06/11 05:58:50;;;;;;;;;0.00;0.00;23.70;99.90;;;;;;4930600;28;8870;-50
2022/06/11 06:01:24;;;;;;;;;0.00;0.00;23.70;99.90;;;;;;4929293;28;8850;-50
2022/06/11 06:03:54;;;;;;;;;0.00;0.00;23.60;99.90;;;;;;4930526;28;9611;-48
2022/06/11 06:06:24;;;;;;;;;0.00;0.00;23.60;99.90;;;;;;4930072;28;8854;-47
2022/06/11 06:08:55;;;;;;;;;0.25;0.25;23.60;99.90;;;;;;4931204;28;8879;-50
2022/06/11 06:11:27;;;;;;;;;0.00;0.00;23.60;99.90;;;;;;4927391;28;8858;-49
2022/06/11 06:13:57;;;;;;;;;0.00;0.00;23.60;99.90;;;;;;4930396;28;8845;-50
2022/06/11 06:16:29;;;;;;;;;0.00;0.00;23.50;99.90;;;;;;4935283;28;8893;-52
2022/06/11 06:19:02;;;;;;;;;0.00;0.00;23.50;99.90;;;;;;4927331;28;8861;-52
2022/06/11 06:21:35;;;;;;;;;1.00;1.00;23.50;99.90;;;;;;4928346;28;9611;-49
2022/06/11 06:24:06;;;;;;;;;0.00;0.00;23.40;99.90;;;;;;4926311;28;9042;-50
2022/06/11 06:26:36;;;;;;;;;2.75;0.00;23.40;99.90;;;;;;4925360;28;9033;-50
2022/06/11 06:29:07;;;;;;;;;0.00;0.00;23.40;99.90;;;;;;4933062;28;8860;-49
2022/06/11 06:31:37;;;;;;;;;0.00;0.00;23.30;99.90;;;;;;4928328;28;8900;-48
2022/06/11 06:34:07;;;;;;;;;0.00;0.00;23.30;99.90;;;;;;4928903;28;8875;-51
2022/06/11 06:36:38;;;;;;;;;0.00;0.00;23.30;99.90;;;;;;4928577;28;8892;-49
2022/06/11 06:39:10;;;;;;;;;0.00;0.00;23.30;99.90;;;;;;4927037;28;8880;-48
2022/06/11 06:41:40;;;;;;;;;0.00;0.00;23.30;99.90;;;;;;4923217;28;8876;-49
2022/06/11 06:44:10;;;;;;;;;0.00;0.00;23.30;99.90;;;;;;4928410;28;8910;-50
2022/06/11 06:46:41;;;;;;;;;0.50;0.50;23.20;99.90;;;;;;4928841;28;8909;-49
2022/06/11 06:49:18;;;;;;;;;0.00;0.00;23.20;99.90;;;;;;4928599;28;8834;-46
2022/06/11 06:51:49;;;;;;;;;1.00;1.00;23.20;99.90;;;;;;4930082;28;8893;-49
2022/06/11 06:54:19;;;;;;;;;0.00;0.00;23.20;99.90;;;;;;4929572;28;8877;-48
2022/06/11 06:56:50;;;;;;;;;0.50;0.50;23.10;99.90;;;;;;4927645;28;8936;-47
2022/06/11 06:59:20;;;;;;;;;0.00;0.00;23.10;99.90;;;;;;4929965;28;9096;-53
2022/06/11 07:01:52;;;;;;;;;0.00;0.00;23.10;99.90;;;;;;4931127;28;8898;-51
2022/06/11 07:04:22;;;;;;;;;1.00;0.00;23.00;99.90;;;;;;4929458;28;9874;-50
2022/06/11 07:06:54;;;;;;;;;1.50;1.50;23.00;99.90;;;;;;4932304;28;8889;-49
2022/06/11 07:09:26;;;;;;;;;2.50;2.50;23.00;99.90;;;;;;4926257;28;8938;-47
2022/06/11 07:11:55;;;;;;;;;2.25;2.25;23.00;99.90;;;;;;4928307;28;9037;-49
2022/06/11 07:14:25;;;;;;;;;2.25;2.25;23.00;99.90;;;;;;4928197;28;8897;-49
2022/06/11 07:16:58;;;;;;;;;1.75;1.75;22.90;99.90;;;;;;4927736;28;8901;-46
2022/06/11 07:19:38;;;;;;;;;1.00;1.00;22.90;99.90;;;;;;4922681;28;8873;-50
2022/06/11 07:22:23;;;;;;;;;1.00;1.00;22.80;99.90;;;;;;4930619;28;8853;-50
2022/06/11 07:24:54;;;;;;;;;0.00;0.00;22.80;99.90;;;;;;4924744;28;9611;-52
2022/06/11 07:27:29;;;;;;;;;2.00;0.00;22.70;99.90;;;;;;4935345;28;9051;-47
2022/06/11 07:30:10;;;;;;;;;0.50;0.50;22.70;99.90;;;;;;4931071;28;8995;-50
2022/06/11 07:32:42;;;;;;;;;0.00;0.00;22.60;99.90;;;;;;4933337;28;8861;-49
2022/06/11 07:35:15;;;;;;;;;0.00;0.00;22.70;99.90;;;;;;4927469;28;8885;-51
2022/06/11 07:37:48;;;;;;;;;0.00;0.00;22.70;99.90;;;;;;4933523;28;9113;-52
2022/06/11 07:40:18;;;;;;;;;0.25;0.25;22.70;99.90;;;;;;4932079;28;8865;-45
2022/06/11 07:42:49;;;;;;;;;2.00;0.00;22.60;99.90;;;;;;4934485;28;9035;-54
2022/06/11 07:45:19;;;;;;;;;1.00;1.00;22.60;99.90;;;;;;4935045;28;8877;-53
2022/06/11 07:47:55;;;;;;;;;0.00;0.00;22.60;99.90;;;;;;4929924;28;9367;-48
2022/06/11 07:50:31;;;;;;;;;0.00;0.00;22.60;99.90;;;;;;4931814;28;8885;-50
2022/06/11 07:53:03;;;;;;;;;0.00;0.00;22.50;99.90;;;;;;4933876;28;8975;-51
2022/06/11 07:55:37;;;;;;;;;0.00;0.00;22.60;99.90;;;;;;4924431;28;8866;-46
2022/06/11 07:58:09;;;;;;;;;0.25;0.25;22.50;99.90;;;;;;4929270;28;8853;-49
2022/06/11 08:00:43;;;;;;;;;0.00;0.00;22.50;99.90;;;;;;4924894;28;8881;-49
2022/06/11 08:03:13;;;;;;;;;1.25;1.25;22.50;99.90;;;;;;4931461;28;8869;-48
2022/06/11 08:05:46;;;;;;;;;1.00;1.00;22.40;99.90;;;;;;4928174;28;8887;-51
2022/06/11 08:08:19;;;;;;;;;1.00;1.00;22.40;99.90;;;;;;4930748;28;8896;-54
2022/06/11 08:10:49;;;;;;;;;1.00;1.00;22.40;99.90;;;;;;4930900;28;9059;-54
2022/06/11 08:13:19;;;;;;;;;1.00;1.00;22.40;99.90;;;;;;4929842;28;8838;-48
2022/06/11 08:15:52;;;;;;;;;1.00;1.00;22.30;99.90;;;;;;4928494;28;8857;-46
2022/06/11 08:18:23;;;;;;;;;1.75;0.75;22.30;99.90;;;;;;4929029;28;9613;-48
2022/06/11 08:20:54;;;;;;;;;0.00;0.00;22.30;99.90;;;;;;4925493;28;8864;-49
2022/06/11 08:23:25;;;;;;;;;1.00;1.00;22.20;99.90;;;;;;4929325;28;8857;-48
2022/06/11 08:25:55;;;;;;;;;1.00;1.00;22.20;99.90;;;;;;4930089;28;8920;-50
2022/06/11 08:28:26;;;;;;;;;0.00;0.00;22.20;99.90;;;;;;4926967;28;8898;-46
2022/06/11 08:30:56;;;;;;;;;0.00;0.00;22.20;99.90;;;;;;4933330;28;8838;-47
2022/06/11 08:33:25;;;;;;;;;2.00;2.00;22.20;99.90;;;;;;4935908;28;8878;-49
2022/06/11 08:35:58;;;;;;;;;0.00;0.00;22.10;99.90;;;;;;4931534;28;8913;-47
2022/06/11 08:38:28;;;;;;;;;1.00;1.00;22.10;99.90;;;;;;4929117;28;8868;-49
2022/06/11 08:40:59;;;;;;;;;2.00;1.00;22.10;99.90;;;;;;4931647;28;8860;-46
2022/06/11 08:43:41;;;;;;;;;0.00;0.00;22.00;99.90;;;;;;4935214;28;8864;-48
2022/06/11 08:46:17;;;;;;;;;0.00;0.00;22.00;99.90;;;;;;4933365;28;8889;-47
2022/06/11 08:48:57;;;;;;;;;0.25;0.25;21.90;99.90;;;;;;4924055;28;8864;-49
2022/06/11 08:51:45;;;;;;;;;1.00;1.00;21.90;99.90;;;;;;4942220;28;8894;-48
2022/06/11 08:54:24;;;;;;;;;0.00;0.00;21.90;99.90;;;;;;4930944;28;8889;-50
2022/06/11 08:57:28;;;;;;;;;0.00;0.00;21.90;99.90;;;;;;4938510;28;8839;-49
2022/06/11 09:00:11;;;;;;;;;0.50;0.50;21.90;99.90;;;;;;4933267;28;10504;-50
2022/06/11 09:03:09;;;;;;;;;0.00;0.00;21.80;99.90;;;;;;4931266;28;8860;-49
2022/06/11 09:05:49;;;;;;;;;0.00;0.00;21.80;99.90;;;;;;4932078;28;8853;-49
2022/06/11 09:08:43;;;;;;;;;1.50;0.00;21.70;99.90;;;;;;4931395;28;8990;-50
2022/06/11 09:11:44;;;;;;;;;0.00;0.00;21.70;99.90;;;;;;4922557;28;8883;-49
2022/06/11 09:14:42;;;;;;;;;1.00;1.00;21.70;99.90;;;;;;4927165;28;8905;-48
2022/06/11 09:17:34;;;;;;;;;1.00;1.00;21.70;99.90;;;;;;4937906;28;9754;-45
2022/06/11 09:20:27;;;;;;;;;0.00;0.00;21.60;99.90;;;;;;4939053;28;8835;-48
2022/06/11 09:23:16;;;;;;;;;0.00;0.00;21.50;99.90;;;;;;4931718;28;8923;-49
2022/06/11 09:26:16;;;;;;;;;0.50;0.50;21.50;99.90;;;;;;4929827;28;8829;-48
2022/06/11 09:29:00;;;;;;;;;1.00;1.00;21.50;99.90;;;;;;4933517;28;8900;-47
2022/06/11 09:31:35;;;;;;;;;0.00;0.00;21.50;99.90;;;;;;4924470;28;8844;-45
2022/06/11 09:34:19;;;;;;;;;1.50;0.75;21.50;99.90;;;;;;4926789;28;8918;-46
2022/06/11 09:37:14;;;;;;;;;1.00;1.00;21.40;99.90;;;;;;4934399;28;9019;-49
2022/06/11 09:39:53;;;;;;;;;3.33;0.67;21.40;99.90;;;;;;4921806;28;8906;-50
2022/06/11 09:42:42;;;;;;;;;1.00;1.00;21.40;99.90;;;;;;4932538;28;8989;-53
2022/06/11 09:45:28;;;;;;;;;0.00;0.00;21.30;99.90;;;;;;4923457;28;8861;-46
2022/06/11 09:48:17;;;;;;;;;1.00;1.00;21.30;99.90;;;;;;4932438;28;8893;-49
2022/06/11 09:51:13;;;;;;;;;0.00;0.00;21.30;99.90;;;;;;4931524;28;8898;-48
2022/06/11 09:53:50;;;;;;;;;1.00;1.00;21.30;99.90;;;;;;4923688;28;8880;-49
2022/06/11 09:56:25;;;;;;;;;1.00;1.00;21.20;99.90;;;;;;4931310;28;8866;-47
2022/06/11 09:59:23;;;;;;;;;0.00;0.00;21.30;99.90;;;;;;4930649;28;8949;-48
2022/06/11 10:02:01;;;;;;;;;4.00;1.00;21.20;99.90;;;;;;4929396;28;9023;-49
2022/06/11 10:04:36;;;;;;;;;0.00;0.00;21.20;99.90;;;;;;4924454;28;8870;-50
2022/06/11 10:07:16;;;;;;;;;0.00;0.00;21.20;99.90;;;;;;4939994;28;8890;-47
2022/06/11 10:10:00;;;;;;;;;0.00;0.00;21.10;99.90;;;;;;4926218;28;8876;-47
2022/06/11 10:12:30;;;;;;;;;0.00;0.00;21.10;99.90;;;;;;4927208;28;9137;-48
2022/06/11 10:15:20;;;;;;;;;1.33;1.00;21.10;99.90;;;;;;4928938;28;8964;-49
2022/06/11 10:18:01;;;;;;;;;0.50;0.50;21.00;99.90;;;;;;4922194;28;9118;-50
2022/06/11 10:20:58;;;;;;;;;1.00;1.00;21.00;99.90;;;;;;4930968;28;8900;-48
2022/06/11 10:23:46;;;;;;;;;0.67;0.67;21.00;99.90;;;;;;4929318;28;9179;-51
2022/06/11 10:26:30;;;;;;;;;1.00;1.00;21.00;99.90;;;;;;4925574;28;9087;-48
2022/06/11 10:29:23;;;;;;;;;0.25;0.25;21.00;99.90;;;;;;4931208;28;8984;-50
2022/06/11 10:32:00;;;;;;;;;0.67;0.67;21.00;99.90;;;;;;4927084;28;8902;-48
2022/06/11 10:34:31;;;;;;;;;0.33;0.33;20.90;99.90;;;;;;4926096;28;8963;-47
2022/06/11 10:37:31;;;;;;;;;0.00;0.00;20.90;99.90;;;;;;4927602;28;8966;-45
2022/06/11 10:40:16;;;;;;;;;1.33;1.33;20.90;99.90;;;;;;4925185;28;9646;-46
2022/06/11 10:43:16;;;;;;;;;0.00;0.00;20.80;99.90;;;;;;4929322;28;8952;-49
2022/06/11 10:45:48;;;;;;;;;1.00;1.00;20.80;99.90;;;;;;4926851;28;9116;-51
2022/06/11 10:48:23;;;;;;;;;1.00;1.00;20.80;99.90;;;;;;4925468;28;9879;-48
2022/06/11 10:50:54;;;;;;;;;0.00;0.00;20.80;99.90;;;;;;4930539;28;9119;-49
2022/06/11 10:53:30;;;;;;;;;0.67;0.67;20.80;99.90;;;;;;4933118;28;8873;-54
2022/06/11 10:56:13;;;;;;;;;2.00;1.00;20.80;99.90;;;;;;4927934;28;9000;-49
2022/06/11 10:58:57;;;;;;;;;0.00;0.00;20.70;99.90;;;;;;4929248;28;9966;-47
2022/06/11 11:01:51;;;;;;;;;0.67;0.67;20.70;99.90;;;;;;4929637;28;9151;-49
2022/06/11 11:04:28;;;;;;;;;0.67;0.67;20.70;99.90;;;;;;4922996;28;9669;-49
2022/06/11 11:07:40;;;;;;;;;0.00;0.00;20.60;99.90;;;;;;4929167;28;9016;-48
2022/06/11 11:10:43;;;;;;;;;1.00;1.00;20.70;99.90;;;;;;4920893;28;9002;-48
2022/06/11 11:13:29;;;;;;;;;1.00;1.00;20.60;99.90;;;;;;4937504;28;10243;-46
2022/06/11 11:16:22;;;;;;;;;2.00;2.00;20.60;99.90;;;;;;4928017;28;8968;-50
2022/06/11 11:19:19;;;;;;;;;0.00;0.00;20.60;99.90;;;;;;4929419;28;9221;-50
2022/06/11 11:21:56;;;;;;;;;0.00;0.00;20.60;99.90;;;;;;4932594;28;9212;-48
2022/06/11 11:24:33;;;;;;;;;0.00;0.00;20.60;99.90;;;;;;4938083;28;9790;-46
2022/06/11 11:27:22;;;;;;;;;0.00;0.00;20.50;99.90;;;;;;4937546;28;9100;-51
2022/06/11 11:29:55;;;;;;;;;0.00;0.00;20.50;99.90;;;;;;4928925;28;9031;-44
2022/06/11 11:32:40;;;;;;;;;1.00;1.00;20.50;99.90;;;;;;4932978;28;9021;-47
2022/06/11 11:35:24;;;;;;;;;0.67;0.67;20.50;99.90;;;;;;4924823;28;9086;-48
2022/06/11 11:38:00;;;;;;;;;0.00;0.00;20.40;99.90;;;;;;4935360;28;9117;-49
2022/06/11 11:40:36;;;;;;;;;0.00;0.00;20.40;99.90;;;;;;4926479;28;9181;-48
2022/06/11 11:43:11;;;;;;;;;0.00;0.00;20.40;99.90;;;;;;4930282;28;9055;-47
2022/06/11 11:45:46;;;;;;;;;0.00;0.00;20.40;99.90;;;;;;4932081;28;9844;-45
2022/06/11 11:48:31;;;;;;;;;0.00;0.00;20.40;99.90;;;;;;4928086;28;8885;-48
2022/06/11 11:51:12;;;;;;;;;0.00;0.00;20.40;99.90;;;;;;4932172;28;8892;-48
2022/06/11 11:53:57;;;;;;;;;0.00;0.00;20.40;99.90;;;;;;4929540;28;8958;-48
2022/06/11 11:56:42;;;;;;;;;0.00;0.00;20.40;99.90;;;;;;4933845;28;9051;-46
2022/06/11 11:59:22;;;;;;;;;0.00;0.00;20.40;99.90;;;;;;4927330;28;9194;-51
2022/06/11 12:02:24;;;;;;;;;0.00;0.00;20.40;99.90;;;;;;4934018;28;8962;-46
2022/06/11 12:05:09;;;;;;;;;1.67;0.00;20.40;99.90;;;;;;4925445;28;9087;-48
2022/06/11 12:07:43;;;;;;;;;0.00;0.00;20.30;99.90;;;;;;4927147;28;8996;-50
2022/06/11 12:10:31;;;;;;;;;0.00;0.00;20.30;99.90;;;;;;4930512;28;8989;-49
2022/06/11 12:13:02;;;;;;;;;0.00;0.00;20.30;99.90;;;;;;4928605;28;9125;-51
2022/06/11 12:15:35;;;;;;;;;0.00;0.00;20.30;99.90;;;;;;4931952;28;8950;-50
2022/06/11 12:18:08;;;;;;;;;0.00;0.00;20.30;99.90;;;;;;4927123;28;9098;-48
2022/06/11 12:20:52;;;;;;;;;0.00;0.00;20.30;99.90;;;;;;4932837;28;9243;-49
2022/06/11 12:23:29;;;;;;;;;0.67;0.00;20.30;99.90;;;;;;4927903;28;9056;-47
2022/06/11 12:26:07;;;;;;;;;0.00;0.00;20.20;99.90;;;;;;4925767;28;9074;-47
2022/06/11 12:29:07;;;;;;;;;0.00;0.00;20.20;99.90;;;;;;4931568;28;9039;-50
2022/06/11 12:31:36;;;;;;;;;0.00;0.00;20.20;99.90;;;;;;4927662;28;9171;-49
2022/06/11 12:34:19;;;;;;;;;0.33;0.33;20.20;99.90;;;;;;4928738;28;9046;-47
2022/06/11 12:36:58;;;;;;;;;0.00;0.00;20.10;99.90;;;;;;4933612;28;9048;-46
2022/06/11 12:39:46;;;;;;;;;0.00;0.00;20.10;99.90;;;;;;4930060;28;9126;-48
2022/06/11 12:42:31;;;;;;;;;0.00;0.00;20.10;99.90;;;;;;4931965;28;9016;-49
2022/06/11 12:45:21;;;;;;;;;0.00;0.00;20.10;99.90;;;;;;4927664;28;8988;-52
2022/06/11 12:48:07;;;;;;;;;0.00;0.00;20.00;99.90;;;;;;4927010;28;8969;-47
2022/06/11 12:51:03;;;;;;;;;0.00;0.00;20.00;99.90;;;;;;4927780;28;9066;-49
2022/06/11 12:53:55;;;;;;;;;0.00;0.00;20.00;99.90;;;;;;4923560;28;9065;-49
2022/06/11 12:57:04;;;;;;;;;2.00;0.00;20.00;99.90;;;;;;4934565;28;9147;-48
2022/06/11 13:00:02;;;;;;;;;1.00;0.00;20.00;99.90;;;;;;4931062;28;9022;-48
2022/06/11 13:03:04;;;;;;;;;0.00;0.00;20.00;99.90;;;;;;4927083;28;9323;-46
2022/06/11 13:06:11;;;;;;;;;0.00;0.00;20.00;99.90;;;;;;4922623;28;9222;-49
2022/06/11 13:09:01;;;;;;;;;0.00;0.00;19.90;99.90;;;;;;4927174;28;9070;-48
2022/06/11 13:11:53;;;;;;;;;0.00;0.00;19.90;99.90;;;;;;4933339;28;9206;-50
2022/06/11 13:14:53;;;;;;;;;0.00;0.00;19.90;99.90;;;;;;4931724;28;9262;-50
2022/06/11 13:17:34;;;;;;;;;0.00;0.00;19.80;99.90;;;;;;4929811;28;8878;-49
2022/06/11 13:20:19;;;;;;;;;0.00;0.00;19.90;99.90;;;;;;4932091;28;9114;-47
2022/06/11 13:23:05;;;;;;;;;0.00;0.00;19.90;99.90;;;;;;4935780;28;9157;-46
2022/06/11 13:25:44;;;;;;;;;0.00;0.00;19.80;99.90;;;;;;4932497;28;9157;-49
2022/06/11 13:28:23;;;;;;;;;0.00;0.00;19.80;99.90;;;;;;4926370;28;9063;-50
2022/06/11 13:31:05;;;;;;;;;0.00;0.00;19.80;99.90;;;;;;4930651;28;9134;-51
2022/06/11 13:34:15;;;;;;;;;0.00;0.00;19.80;99.90;;;;;;4931156;28;9156;-49
2022/06/11 13:36:52;;;;;;;;;1.00;0.00;19.80;99.90;;;;;;4922942;28;9431;-50
2022/06/11 13:39:57;;;;;;;;;0.00;0.00;19.80;99.90;;;;;;4936635;28;9990;-50
2022/06/11 13:42:33;;;;;;;;;0.00;0.00;19.80;99.90;;;;;;4929247;28;9146;-46
2022/06/11 13:45:09;;;;;;;;;1.00;0.00;19.80;99.90;;;;;;4929113;28;9221;-46
2022/06/11 13:48:15;;;;;;;;;0.00;0.00;19.80;99.90;;;;;;4933310;28;9115;-46
2022/06/11 13:51:01;;;;;;;;;0.00;0.00;19.80;99.90;;;;;;4932085;28;8858;-45
2022/06/11 13:56:33;;;;;;;;;0.00;0.00;19.80;99.90;;;;;;4933024;28;9237;-48
2022/06/11 13:59:23;;;;;;;;;0.00;0.00;19.80;99.90;;;;;;4927154;28;9269;-46
2022/06/11 14:02:22;;;;;;;;;0.00;0.00;19.90;99.90;;;;;;4927098;28;9138;-48